createdAt,value
2023-11-15T00:01:27.152Z,13.23
2023-11-15T00:03:54.479Z,12.84
2023-11-15T00:06:21.939Z,13.11
2023-11-15T00:08:49.184Z,12.89
2023-11-15T00:11:20.330Z,12.88
2023-11-15T00:13:49.662Z,12.94
2023-11-15T00:16:16.949Z,13.04
2023-11-15T00:18:44.191Z,13.14
2023-11-15T00:21:11.362Z,13.13
2023-11-15T00:23:39.640Z,13.13
2023-11-15T00:26:06.716Z,13.11
2023-11-15T00:28:34.482Z,12.92
2023-11-15T00:31:01.507Z,12.77
2023-11-15T00:33:28.721Z,13.09
2023-11-15T00:35:57.146Z,13.12
2023-11-15T00:38:24.643Z,13.31
2023-11-15T00:40:52.360Z,13.24
2023-11-15T00:43:20.207Z,13.24
2023-11-15T00:45:47.422Z,13.33
2023-11-15T00:48:15.647Z,13.14
2023-11-15T00:50:43.072Z,12.79
2023-11-15T00:53:10.349Z,12.89
2023-11-15T00:55:37.340Z,12.93
2023-11-15T00:58:05.265Z,13.01
2023-11-15T01:00:40.776Z,12.99
2023-11-15T01:03:08.102Z,13.08
2023-11-15T01:05:35.345Z,13.13
2023-11-15T01:08:05.675Z,13.17
2023-11-15T01:10:35.927Z,12.88
2023-11-15T01:13:03.073Z,12.53
2023-11-15T01:15:31.245Z,12.36
2023-11-15T01:17:58.748Z,12.69
2023-11-15T01:20:26.587Z,12.67
2023-11-15T01:22:53.813Z,12.84
2023-11-15T01:25:21.919Z,12.71
2023-11-15T01:27:48.970Z,12.47
2023-11-15T01:30:16.050Z,12.36
2023-11-15T01:32:43.722Z,12.73
2023-11-15T01:35:10.820Z,12.88
2023-11-15T01:37:37.979Z,13.02
2023-11-15T01:40:07.759Z,13.16
2023-11-15T01:42:35.274Z,13.10
2023-11-15T01:45:04.120Z,13.13
2023-11-15T01:47:31.953Z,13.24
2023-11-15T01:50:00.705Z,13.36
2023-11-15T01:52:29.229Z,13.55
2023-11-15T01:54:58.054Z,13.63
2023-11-15T01:57:25.115Z,13.70
2023-11-15T01:59:53.022Z,13.69
2023-11-15T02:02:20.133Z,13.71
2023-11-15T02:04:47.250Z,13.43
2023-11-15T02:07:14.318Z,13.56
2023-11-15T02:09:42.353Z,13.63
2023-11-15T02:12:10.628Z,13.53
2023-11-15T02:14:38.961Z,13.49
2023-11-15T02:17:08.763Z,13.43
2023-11-15T02:19:35.853Z,13.74
2023-11-15T02:22:03.040Z,13.64
2023-11-15T02:24:30.682Z,13.60
2023-11-15T02:26:57.803Z,13.50
2023-11-15T02:29:25.444Z,13.70
2023-11-15T02:31:52.564Z,13.63
2023-11-15T02:34:19.691Z,13.45
2023-11-15T02:36:46.707Z,13.55
2023-11-15T02:39:14.726Z,13.71
2023-11-15T02:41:42.660Z,13.71
2023-11-15T02:44:11.597Z,13.84
2023-11-15T02:46:38.728Z,13.90
2023-11-15T02:49:05.900Z,14.00
2023-11-15T02:51:33.095Z,13.84
2023-11-15T02:54:00.273Z,13.59
2023-11-15T02:56:27.425Z,13.50
2023-11-15T02:58:54.509Z,13.41
2023-11-15T03:01:21.680Z,13.35
2023-11-15T03:03:49.382Z,13.19
2023-11-15T03:06:16.657Z,13.11
2023-11-15T03:08:43.719Z,12.96
2023-11-15T03:11:10.757Z,13.16
2023-11-15T03:13:37.864Z,13.48
2023-11-15T03:16:05.488Z,13.38
2023-11-15T03:18:33.431Z,13.36
2023-11-15T03:21:00.695Z,13.14
2023-11-15T03:23:27.900Z,13.31
2023-11-15T03:25:55.053Z,13.47
2023-11-15T03:28:22.184Z,13.04
2023-11-15T03:30:49.227Z,12.90
2023-11-15T03:33:16.733Z,13.21
2023-11-15T03:35:44.174Z,13.09
2023-11-15T03:38:11.265Z,12.94
2023-11-15T03:40:38.463Z,13.14
2023-11-15T03:43:05.616Z,13.18
2023-11-15T03:45:32.998Z,13.31
2023-11-15T03:48:04.161Z,13.26
2023-11-15T03:50:31.434Z,13.14
2023-11-15T03:53:01.227Z,12.98
2023-11-15T03:55:28.452Z,12.91
2023-11-15T03:57:55.936Z,13.18
2023-11-15T04:00:23.784Z,13.09
2023-11-15T04:02:51.344Z,12.97
2023-11-15T04:05:18.748Z,12.88
2023-11-15T04:07:45.979Z,12.91
2023-11-15T04:10:13.837Z,13.00
2023-11-15T04:12:41.072Z,12.95
2023-11-15T04:15:10.708Z,12.46
2023-11-15T04:17:38.105Z,12.68
2023-11-15T04:20:09.921Z,12.78
2023-11-15T04:22:37.183Z,12.74
2023-11-15T04:25:06.029Z,12.87
2023-11-15T04:27:33.146Z,12.87
2023-11-15T04:30:00.368Z,12.91
2023-11-15T04:32:27.458Z,12.99
2023-11-15T04:34:54.607Z,12.93
2023-11-15T04:37:23.354Z,12.96
2023-11-15T04:39:50.423Z,12.88
2023-11-15T04:42:20.219Z,12.86
2023-11-15T04:44:47.731Z,12.93
2023-11-15T04:47:14.888Z,13.05
2023-11-15T04:49:42.360Z,13.09
2023-11-15T04:52:09.620Z,13.22
2023-11-15T04:54:36.864Z,13.13
2023-11-15T04:57:04.805Z,13.16
2023-11-15T04:59:33.114Z,13.35
2023-11-15T05:02:00.442Z,13.45
2023-11-15T05:04:27.812Z,13.31
2023-11-15T05:06:55.669Z,13.19
2023-11-15T05:09:24.513Z,13.14
2023-11-15T05:11:51.627Z,13.31
2023-11-15T05:14:18.722Z,13.20
2023-11-15T05:16:45.827Z,13.17
2023-11-15T05:19:12.817Z,13.31
2023-11-15T05:21:39.897Z,13.35
2023-11-15T05:24:07.574Z,13.47
2023-11-15T05:26:34.637Z,13.37
2023-11-15T05:29:01.741Z,13.36
2023-11-15T05:31:28.876Z,13.34
2023-11-15T05:33:56.334Z,13.28
2023-11-15T05:36:23.488Z,13.06
2023-11-15T05:38:50.563Z,13.34
2023-11-15T05:41:17.728Z,13.34
2023-11-15T05:43:44.820Z,13.39
2023-11-15T05:46:11.944Z,13.49
2023-11-15T05:48:39.283Z,13.62
2023-11-15T05:51:08.116Z,13.66
2023-11-15T05:53:35.211Z,13.73
2023-11-15T05:56:02.452Z,13.69
2023-11-15T05:58:29.497Z,13.66
2023-11-15T06:00:56.497Z,13.81
2023-11-15T06:03:24.041Z,13.84
2023-11-15T06:05:51.685Z,13.81
2023-11-15T06:08:19.145Z,13.94
2023-11-15T06:10:48.508Z,13.79
2023-11-15T06:13:17.037Z,13.80
2023-11-15T06:15:44.993Z,13.77
2023-11-15T06:18:15.166Z,13.81
2023-11-15T06:20:42.334Z,13.95
2023-11-15T06:23:10.211Z,14.20
2023-11-15T06:25:37.468Z,14.33
2023-11-15T06:28:04.783Z,14.39
2023-11-15T06:30:32.171Z,14.62
2023-11-15T06:32:59.727Z,14.78
2023-11-15T06:35:26.981Z,14.86
2023-11-15T06:37:55.685Z,14.84
2023-11-15T06:40:22.796Z,14.87
2023-11-15T06:42:50.096Z,14.74
2023-11-15T06:45:17.548Z,14.62
2023-11-15T06:47:44.801Z,14.62
2023-11-15T06:50:12.019Z,14.91
2023-11-15T06:52:39.486Z,15.04
2023-11-15T06:55:08.187Z,15.02
2023-11-15T06:57:35.214Z,15.05
2023-11-15T07:00:02.403Z,15.14
2023-11-15T07:02:29.619Z,15.27
2023-11-15T07:04:56.735Z,15.33
2023-11-15T07:07:23.842Z,15.41
2023-11-15T07:09:50.874Z,15.15
2023-11-15T07:12:19.981Z,15.25
2023-11-15T07:14:48.368Z,15.43
2023-11-15T07:17:19.476Z,15.30
2023-11-15T07:19:50.137Z,15.33
2023-11-15T07:22:17.272Z,15.51
2023-11-15T07:24:44.603Z,15.48
2023-11-15T07:27:11.686Z,15.58
2023-11-15T07:29:39.283Z,15.43
2023-11-15T07:32:08.884Z,15.40
2023-11-15T07:34:37.288Z,15.34
2023-11-15T07:37:04.469Z,15.27
2023-11-15T07:39:32.410Z,15.35
2023-11-15T07:42:00.719Z,15.18
2023-11-15T07:44:27.886Z,15.12
2023-11-15T07:46:56.473Z,15.15
2023-11-15T07:49:25.626Z,15.20
2023-11-15T07:51:52.827Z,15.30
2023-11-15T07:54:20.916Z,15.21
2023-11-15T07:56:48.298Z,15.45
2023-11-15T07:59:16.095Z,15.28
2023-11-15T08:01:47.194Z,15.47
2023-11-15T08:04:16.976Z,15.50
2023-11-15T08:06:44.444Z,15.30
2023-11-15T08:09:26.500Z,15.30
2023-11-15T08:11:57.913Z,15.38
2023-11-15T08:14:27.148Z,15.70
2023-11-15T08:16:56.079Z,15.69
2023-11-15T08:19:23.922Z,15.70
2023-11-15T08:21:51.896Z,15.69
2023-11-15T08:24:25.766Z,15.62
2023-11-15T08:26:56.330Z,15.62
2023-11-15T08:29:23.997Z,15.75
2023-11-15T08:31:51.408Z,15.80
2023-11-15T08:34:23.706Z,15.76
2023-11-15T08:36:52.066Z,15.79
2023-11-15T08:39:19.335Z,16.06
2023-11-15T08:41:48.208Z,16.16
2023-11-15T08:44:21.708Z,16.22
2023-11-15T08:46:59.053Z,16.28
2023-11-15T08:49:27.585Z,16.27
2023-11-15T08:51:54.724Z,16.06
2023-11-15T08:54:22.001Z,16.44
2023-11-15T08:56:49.058Z,16.26
2023-11-15T08:59:16.700Z,16.43
2023-11-15T09:01:46.125Z,16.37
2023-11-15T09:04:17.879Z,16.22
2023-11-15T09:06:49.593Z,16.33
2023-11-15T09:09:17.721Z,16.50
2023-11-15T09:11:45.293Z,16.49
2023-11-15T09:14:13.193Z,16.47
2023-11-15T09:16:43.402Z,16.68
2023-11-15T09:19:17.444Z,16.82
2023-11-15T09:21:49.361Z,17.02
2023-11-15T09:24:24.027Z,17.19
2023-11-15T09:26:52.252Z,17.13
2023-11-15T09:29:21.036Z,17.28
2023-11-15T09:31:48.389Z,17.10
2023-11-15T09:34:16.112Z,17.07
2023-11-15T09:36:43.940Z,17.29
2023-11-15T09:39:11.626Z,17.54
2023-11-15T09:41:39.189Z,17.72
2023-11-15T09:44:10.603Z,17.75
2023-11-15T10:17:53.911Z,16.86
2023-11-15T10:20:23.870Z,17.13
2023-11-15T10:22:54.150Z,17.60
2023-11-15T10:25:22.270Z,17.89
2023-11-15T10:27:52.447Z,17.94
2023-11-15T10:30:21.913Z,18.12
2023-11-15T10:32:51.058Z,18.38
2023-11-15T10:35:28.952Z,18.63
2023-11-15T10:37:57.109Z,18.92
2023-11-15T10:40:27.423Z,18.95
2023-11-15T10:42:56.684Z,18.96
2023-11-15T10:45:29.063Z,18.94
2023-11-15T10:47:58.601Z,18.82
2023-11-15T10:50:32.951Z,18.61
2023-11-15T10:53:02.949Z,18.78
2023-11-15T10:55:31.069Z,18.93
2023-11-15T10:58:03.609Z,18.99
2023-11-15T11:00:36.098Z,18.87
2023-11-15T11:03:03.756Z,19.08
2023-11-15T11:05:43.227Z,19.16
2023-11-15T11:08:36.452Z,19.22
2023-11-15T11:11:14.311Z,19.18
2023-11-15T11:13:41.642Z,19.25
2023-11-15T11:16:45.523Z,19.09
2023-11-15T11:19:18.084Z,19.09
2023-11-15T11:22:09.808Z,19.11
2023-11-15T11:24:47.460Z,19.12
2023-11-15T11:27:18.046Z,18.91
2023-11-15T11:29:51.068Z,18.88
2023-11-15T11:32:21.883Z,18.92
2023-11-15T11:35:06.807Z,18.70
2023-11-15T11:37:48.372Z,18.65
2023-11-15T11:40:16.640Z,18.14
2023-11-15T11:42:44.951Z,17.93
2023-11-15T11:45:13.928Z,17.77
2023-11-15T11:47:48.510Z,17.51
2023-11-15T11:50:19.908Z,17.51
2023-11-15T11:52:47.056Z,17.30
2023-11-15T11:55:15.439Z,17.31
2023-11-15T11:57:42.623Z,17.42
2023-11-15T12:00:19.253Z,17.38
2023-11-15T12:02:54.331Z,17.16
2023-11-15T12:05:27.009Z,17.01
2023-11-15T12:07:55.856Z,17.13
2023-11-15T12:10:24.273Z,16.95
2023-11-15T12:13:05.283Z,16.82
2023-11-15T12:15:36.912Z,16.60
2023-11-15T12:18:04.399Z,16.54
2023-11-15T12:20:37.506Z,16.41
2023-11-15T12:23:07.385Z,16.37
2023-11-15T12:25:42.620Z,16.33
2023-11-15T12:28:10.479Z,15.90
2023-11-15T12:30:38.391Z,15.68
2023-11-15T12:33:05.574Z,15.72
2023-11-15T12:35:35.719Z,15.71
2023-11-15T12:38:06.569Z,15.41
2023-11-15T12:40:37.833Z,15.49
2023-11-15T12:43:23.124Z,15.51
2023-11-15T12:45:52.608Z,15.40
2023-11-15T12:48:21.135Z,15.26
2023-11-15T12:50:49.483Z,15.33
2023-11-15T12:53:19.101Z,15.39
2023-11-15T12:55:51.267Z,15.17
2023-11-15T12:58:20.305Z,15.13
2023-11-15T13:01:04.200Z,15.00
2023-11-15T13:03:35.926Z,14.99
2023-11-15T13:06:12.580Z,14.83
2023-11-15T13:08:40.962Z,14.84
2023-11-15T13:11:08.134Z,14.58
2023-11-15T13:13:35.328Z,14.74
2023-11-15T13:16:02.397Z,14.79
2023-11-15T13:18:29.683Z,14.64
2023-11-15T13:20:59.732Z,14.59
2023-11-15T13:23:28.294Z,14.55
2023-11-15T13:25:55.569Z,14.61
2023-11-15T13:28:22.931Z,14.51
2023-11-15T13:30:50.017Z,14.47
2023-11-15T13:33:19.487Z,14.38
2023-11-15T13:35:46.927Z,14.30
2023-11-15T13:38:14.173Z,14.28
2023-11-15T13:40:46.064Z,14.29
2023-11-15T13:43:13.250Z,14.29
2023-11-15T13:45:40.318Z,14.31
2023-11-15T13:48:07.428Z,14.15
2023-11-15T13:50:34.556Z,14.01
2023-11-15T13:53:01.626Z,13.97
2023-11-15T13:55:29.317Z,13.97
2023-11-15T13:57:56.488Z,13.82
2023-11-15T14:00:29.606Z,13.70
2023-11-15T14:02:56.788Z,13.50
2023-11-15T14:05:23.975Z,13.43
2023-11-15T14:07:53.413Z,13.35
2023-11-15T14:10:20.707Z,13.24
2023-11-15T14:12:47.952Z,13.17
2023-11-15T14:15:19.935Z,13.09
2023-11-15T14:17:49.886Z,13.05
2023-11-15T14:20:24.143Z,13.04
2023-11-15T14:22:51.583Z,13.00
2023-11-15T14:25:22.328Z,13.01
2023-11-15T14:27:53.579Z,13.02
2023-11-15T14:30:23.764Z,12.96
2023-11-15T14:32:51.709Z,12.98
2023-11-15T14:35:20.260Z,12.91
2023-11-15T14:37:50.590Z,12.93
2023-11-15T14:40:22.380Z,13.00
2023-11-15T14:42:52.501Z,12.96
2023-11-15T14:45:21.216Z,12.87
2023-11-15T14:47:48.571Z,12.87
2023-11-15T14:50:19.592Z,12.85
2023-11-15T14:52:56.866Z,12.81
2023-11-15T14:55:33.041Z,12.81
2023-11-15T14:58:00.647Z,12.83
2023-11-15T15:00:28.166Z,12.83
2023-11-15T15:02:55.729Z,12.84
2023-11-15T15:05:26.057Z,12.84
2023-11-15T15:07:53.195Z,12.83
2023-11-15T15:10:21.333Z,12.89
2023-11-15T15:12:49.423Z,12.90
2023-11-15T15:15:19.616Z,12.90
2023-11-15T15:17:47.747Z,12.93
2023-11-15T15:20:20.766Z,12.90
2023-11-15T15:22:48.237Z,12.93
2023-11-15T15:25:16.048Z,12.87
2023-11-15T15:27:43.412Z,12.86
2023-11-15T15:30:15.214Z,12.95
2023-11-15T15:32:42.569Z,13.06
2023-11-15T15:35:13.536Z,13.00
2023-11-15T15:37:41.305Z,13.03
2023-11-15T15:40:19.628Z,12.97
2023-11-15T15:42:47.691Z,13.04
2023-11-15T15:45:16.418Z,12.97
2023-11-15T15:47:44.492Z,12.92
2023-11-15T15:50:12.945Z,13.03
2023-11-15T15:52:40.626Z,12.97
2023-11-15T15:55:10.333Z,12.93
2023-11-15T15:57:38.275Z,12.90
2023-11-15T16:00:08.110Z,12.88
2023-11-15T16:02:36.277Z,12.87
2023-11-15T16:05:04.909Z,12.85
2023-11-15T16:07:32.526Z,12.86
2023-11-15T16:10:02.105Z,12.88
2023-11-15T16:12:29.737Z,12.90
2023-11-15T16:14:58.649Z,12.91
2023-11-15T16:17:26.740Z,13.02
2023-11-15T16:19:57.565Z,13.02
2023-11-15T16:22:26.424Z,13.03
2023-11-15T16:24:55.846Z,13.03
2023-11-15T16:27:33.937Z,13.31
2023-11-15T16:30:10.887Z,13.35
2023-11-15T16:32:38.234Z,13.62
2023-11-15T16:35:09.538Z,13.72
2023-11-15T16:37:39.416Z,13.86
2023-11-15T16:40:09.146Z,14.00
2023-11-15T16:42:36.773Z,14.12
2023-11-15T16:45:08.023Z,14.21
2023-11-15T16:47:37.158Z,14.26
2023-11-15T16:50:05.499Z,14.18
2023-11-15T16:52:34.545Z,14.12
2023-11-15T16:55:02.805Z,14.20
2023-11-15T16:57:30.855Z,14.25
2023-11-15T16:59:59.029Z,14.18
2023-11-15T17:02:26.224Z,14.31
2023-11-15T17:04:53.472Z,14.12
2023-11-15T17:07:20.576Z,14.21
2023-11-15T17:09:50.702Z,14.17
2023-11-15T17:12:19.082Z,14.14
2023-11-15T17:14:46.317Z,14.18
2023-11-15T17:17:16.650Z,14.25
2023-11-15T17:19:45.477Z,14.14
2023-11-15T17:22:14.765Z,14.14
2023-11-15T17:24:42.088Z,14.06
2023-11-15T17:27:10.013Z,13.77
2023-11-15T17:29:37.752Z,13.66
2023-11-15T17:32:06.257Z,13.64
2023-11-15T17:34:33.923Z,13.79
2023-11-15T17:37:01.846Z,14.05
2023-11-15T17:39:30.083Z,14.06
2023-11-15T17:41:57.700Z,14.05
2023-11-15T17:44:25.039Z,14.04
2023-11-15T17:46:52.316Z,13.98
2023-11-15T17:49:19.674Z,13.90
2023-11-15T17:51:47.981Z,13.99
2023-11-15T17:54:16.684Z,13.89
2023-11-15T17:56:43.990Z,13.74
2023-11-15T17:59:11.189Z,13.71
2023-11-15T18:01:40.103Z,13.52
2023-11-15T18:04:15.224Z,13.44
2023-11-15T18:06:43.000Z,13.43
2023-11-15T18:09:11.535Z,13.39
2023-11-15T18:11:39.086Z,13.33
2023-11-15T18:14:07.417Z,13.34
2023-11-15T18:16:34.662Z,13.53
2023-11-15T18:19:09.945Z,13.51
2023-11-15T18:21:38.792Z,13.32
2023-11-15T18:26:36.968Z,13.28
2023-11-15T18:29:05.345Z,13.29
2023-11-15T18:31:32.464Z,13.21
2023-11-15T18:33:59.824Z,13.20
2023-11-15T18:36:28.013Z,13.16
2023-11-15T18:38:56.194Z,13.05
2023-11-15T18:41:23.277Z,12.93
2023-11-15T18:43:50.587Z,12.73
2023-11-15T18:46:18.155Z,12.56
2023-11-15T18:48:45.534Z,12.45
2023-11-15T18:51:13.315Z,12.34
2023-11-15T18:53:40.764Z,12.31
2023-11-15T18:56:08.353Z,12.27
2023-11-15T18:58:37.025Z,12.14
2023-11-15T19:01:04.584Z,12.17
2023-11-15T19:03:31.915Z,12.07
2023-11-15T19:05:59.298Z,12.00
2023-11-15T19:08:26.421Z,11.97
2023-11-15T19:10:55.787Z,11.94
2023-11-15T19:13:26.521Z,11.94
2023-11-15T19:15:59.370Z,11.96
2023-11-15T19:18:30.019Z,11.95
2023-11-15T19:20:58.986Z,11.94
2023-11-15T19:23:26.884Z,12.01
2023-11-15T19:25:54.185Z,12.20
2023-11-15T19:28:21.755Z,12.26
2023-11-15T19:30:50.474Z,12.27
2023-11-15T19:33:18.628Z,12.32
2023-11-15T19:35:47.158Z,12.41
2023-11-15T19:38:14.524Z,12.35
2023-11-15T19:40:41.783Z,12.25
2023-11-15T19:43:10.634Z,12.14
2023-11-15T19:45:37.988Z,11.94
2023-11-15T19:48:06.333Z,11.86
2023-11-15T19:50:33.729Z,11.93
2023-11-15T19:53:04.100Z,12.17
2023-11-15T19:55:32.238Z,12.28
2023-11-15T19:57:59.973Z,12.42
2023-11-15T20:00:27.121Z,12.50
2023-11-15T20:02:54.411Z,12.65
2023-11-15T20:05:23.138Z,12.73
2023-11-15T20:07:50.531Z,12.78
2023-11-15T20:10:19.341Z,12.81
2023-11-15T20:12:47.821Z,12.95
2023-11-15T20:15:18.040Z,12.94
2023-11-15T20:17:46.479Z,12.94
2023-11-15T20:20:16.476Z,13.05
2023-11-15T20:22:50.689Z,13.15
2023-11-15T20:25:20.669Z,13.01
2023-11-15T20:27:47.953Z,13.08
2023-11-15T20:30:15.957Z,13.04
2023-11-15T20:32:43.384Z,13.14
2023-11-15T20:35:12.115Z,13.18
2023-11-15T20:37:39.351Z,13.08
2023-11-15T20:40:08.886Z,12.89
2023-11-15T20:42:36.386Z,12.85
2023-11-15T20:45:03.879Z,12.66
2023-11-15T20:47:31.110Z,12.44
2023-11-15T20:49:58.261Z,12.41
2023-11-15T20:52:25.988Z,12.43
2023-11-15T20:54:53.196Z,12.38
2023-11-15T20:57:20.766Z,12.35
2023-11-15T20:59:47.835Z,12.27
2023-11-15T21:02:15.586Z,12.11
2023-11-15T21:04:43.360Z,12.07
2023-11-15T21:07:11.787Z,11.87
2023-11-15T21:09:39.833Z,11.90
2023-11-15T21:12:07.156Z,11.85
2023-11-15T21:14:34.629Z,11.86
2023-11-15T21:17:01.720Z,11.83
2023-11-15T21:19:28.878Z,11.86
2023-11-15T21:21:56.251Z,11.81
2023-11-15T21:24:23.592Z,11.75
2023-11-15T21:26:55.343Z,11.73
2023-11-15T21:29:23.967Z,11.79
2023-11-15T21:31:54.729Z,11.72
2023-11-15T21:34:22.016Z,11.71
2023-11-15T21:36:49.186Z,11.70
2023-11-15T21:39:16.322Z,11.68
2023-11-15T21:41:43.419Z,11.71
2023-11-15T21:44:10.514Z,11.65
2023-11-15T21:46:38.437Z,11.59
2023-11-15T21:49:05.808Z,11.45
2023-11-15T21:51:33.002Z,11.40
2023-11-15T21:54:01.588Z,11.38
2023-11-15T21:56:28.769Z,11.22
2023-11-15T21:58:55.857Z,11.14
2023-11-15T22:01:23.170Z,11.11
2023-11-15T22:03:50.306Z,11.10
2023-11-15T22:06:17.548Z,11.00
2023-11-15T22:08:44.861Z,10.96
2023-11-15T22:11:12.098Z,10.90
2023-11-15T22:13:39.188Z,10.91
2023-11-15T22:16:06.765Z,10.80
2023-11-15T22:18:33.951Z,10.67
2023-11-15T22:21:01.084Z,10.60
2023-11-15T22:23:30.121Z,10.59
2023-11-15T22:25:57.318Z,10.52
2023-11-15T22:28:25.776Z,10.53
2023-11-15T22:30:53.061Z,10.56
2023-11-15T22:33:20.218Z,10.52
2023-11-15T22:35:49.913Z,10.53
2023-11-15T22:38:17.791Z,10.49
2023-11-15T22:40:45.501Z,10.48
2023-11-15T22:43:14.227Z,10.48
2023-11-15T22:45:42.154Z,10.48
2023-11-15T22:48:09.603Z,10.47
2023-11-15T22:50:36.781Z,10.49
2023-11-15T22:53:03.805Z,10.45
2023-11-15T22:55:30.808Z,10.48
2023-11-15T22:57:57.866Z,10.51
2023-11-15T23:00:34.735Z,10.56
2023-11-15T23:03:10.529Z,10.56
2023-11-15T23:05:42.322Z,10.52
2023-11-15T23:08:10.727Z,10.53
2023-11-15T23:10:40.995Z,10.55
2023-11-15T23:13:08.078Z,10.52
2023-11-15T23:15:35.315Z,10.52
2023-11-15T23:18:02.568Z,10.51
2023-11-15T23:20:35.196Z,10.44
2023-11-15T23:23:02.935Z,10.44
2023-11-15T23:25:30.659Z,10.45
2023-11-15T23:27:57.834Z,10.46
2023-11-15T23:30:25.662Z,10.43
2023-11-15T23:32:53.545Z,10.45
2023-11-15T23:35:21.499Z,10.44
2023-11-15T23:37:49.355Z,10.46
2023-11-15T23:40:16.636Z,10.42
2023-11-15T23:42:46.705Z,10.46
2023-11-15T23:45:15.750Z,10.44
2023-11-15T23:47:43.487Z,10.40
2023-11-15T23:50:11.012Z,10.39
2023-11-15T23:52:38.165Z,10.38
2023-11-15T23:55:05.703Z,10.34
2023-11-15T23:57:33.728Z,10.32
